Time;durP1;ratioP1;P1;durP2;ratioP2;P2;SDS_P1;SDS_P2;PMS_P1;PMS_P2;Temp;Humidity;BMP_temperature;BMP_pressure;BME280_temperature;BME280_humidity;BME280_pressure;Samples;Min_cycle;Max_cycle;Signal;HPM_P1;HPM_P2
2023/02/12 00:00:50;;;;;;;;;36.75;29.00;;;;;3.34;100.00;99662.41;4962972;28;102448;-73
2023/02/12 00:03:17;;;;;;;;;54.25;37.75;;;;;3.25;100.00;99653.34;4953581;28;102053;-72
2023/02/12 00:05:44;;;;;;;;;48.33;40.67;;;;;3.27;100.00;99674.59;4938604;28;102318;-73
2023/02/12 00:08:13;;;;;;;;;44.50;34.00;;;;;3.27;100.00;99678.13;4947756;28;108878;-73
2023/02/12 00:10:41;;;;;;;;;59.33;41.00;;;;;3.25;100.00;99679.22;4941198;28;101990;-73
2023/02/12 00:13:10;;;;;;;;;42.00;38.00;;;;;3.21;100.00;99678.63;4943901;28;102347;-72
2023/02/12 00:15:38;;;;;;;;;43.67;35.00;;;;;3.21;100.00;99670.59;4952753;28;102976;-73
2023/02/12 00:18:05;;;;;;;;;47.75;35.25;;;;;3.22;100.00;99676.81;4941139;28;104027;-73
2023/02/12 00:20:32;;;;;;;;;37.00;32.00;;;;;3.19;100.00;99669.91;4943583;28;102981;-73
2023/02/12 00:22:59;;;;;;;;;41.00;34.25;;;;;3.22;100.00;99674.97;4920422;28;102059;-73
2023/02/12 00:25:26;;;;;;;;;29.00;23.75;;;;;3.19;100.00;99685.94;4935616;28;102022;-73
2023/02/12 00:27:53;;;;;;;;;47.75;33.00;;;;;3.25;100.00;99687.22;4934952;28;104161;-74
2023/02/12 00:30:20;;;;;;;;;30.00;26.25;;;;;3.23;100.00;99683.84;4932234;28;102375;-73
2023/02/12 00:32:47;;;;;;;;;33.75;29.50;;;;;2.95;100.00;99642.53;4944569;28;102096;-73
2023/02/12 00:35:15;;;;;;;;;35.75;27.50;;;;;3.24;100.00;99677.53;4951366;28;102150;-73
2023/02/12 00:37:41;;;;;;;;;34.75;31.25;;;;;3.19;100.00;99675.25;4934904;28;108158;-73
2023/02/12 00:40:09;;;;;;;;;37.50;28.00;;;;;3.22;100.00;99674.13;4935187;28;102225;-74
2023/02/12 00:42:36;;;;;;;;;36.00;29.75;;;;;3.22;100.00;99679.47;4938923;28;102259;-74
2023/02/12 00:45:03;;;;;;;;;36.00;31.75;;;;;3.15;100.00;99681.81;4941949;28;102065;-74
2023/02/12 00:47:30;;;;;;;;;36.25;32.25;;;;;3.16;100.00;99688.84;4965011;28;104065;-73
2023/02/12 00:49:57;;;;;;;;;30.75;23.00;;;;;3.08;100.00;99685.97;4952980;28;102365;-74
2023/02/12 00:52:25;;;;;;;;;39.00;30.50;;;;;2.77;100.00;99628.91;4934051;28;102350;-73
2023/02/12 00:54:52;;;;;;;;;27.75;21.00;;;;;3.12;100.00;99690.94;4957881;28;102186;-74
2023/02/12 00:57:19;;;;;;;;;30.50;25.75;;;;;3.23;100.00;99698.06;4934359;28;104004;-73
2023/02/12 00:59:46;;;;;;;;;28.50;23.25;;;;;3.26;100.00;99697.78;4942693;28;106410;-74
2023/02/12 01:02:13;;;;;;;;;32.75;27.00;;;;;3.27;100.00;99698.66;4934149;28;102392;-73
2023/02/12 01:04:40;;;;;;;;;33.25;24.00;;;;;3.28;100.00;99708.38;4931122;28;102067;-74
2023/02/12 01:07:08;;;;;;;;;30.25;25.75;;;;;3.23;100.00;99700.75;4928652;28;104200;-73
2023/02/12 01:09:35;;;;;;;;;22.75;19.25;;;;;3.25;100.00;99714.81;4941300;28;103242;-73
2023/02/12 01:12:03;;;;;;;;;38.25;30.50;;;;;2.93;100.00;99663.19;4926244;28;102258;-73
2023/02/12 01:14:30;;;;;;;;;32.50;25.75;;;;;3.05;100.00;99683.56;4952585;28;102019;-73
2023/02/12 01:16:57;;;;;;;;;24.25;21.75;;;;;3.03;100.00;99667.66;4925816;28;104086;-74
2023/02/12 01:19:24;;;;;;;;;31.50;27.00;;;;;3.28;100.00;99701.19;4952251;28;102114;-73
2023/02/12 01:21:51;;;;;;;;;37.50;25.75;;;;;3.24;100.00;99705.13;4932401;28;102129;-73
2023/02/12 01:24:18;;;;;;;;;31.75;29.75;;;;;3.25;100.00;99714.81;4937697;28;102005;-72
2023/02/12 01:26:45;;;;;;;;;29.00;27.50;;;;;3.27;100.00;99702.16;4938320;28;104171;-73
2023/02/12 01:29:12;;;;;;;;;30.25;29.00;;;;;3.26;100.00;99708.50;4936865;28;102235;-73
2023/02/12 01:31:39;;;;;;;;;42.50;30.00;;;;;3.24;100.00;99705.13;4944285;28;102030;-73
2023/02/12 01:34:06;;;;;;;;;33.75;29.00;;;;;3.23;100.00;99710.56;4940258;28;101996;-73
2023/02/12 01:36:34;;;;;;;;;28.50;22.25;;;;;3.29;100.00;99708.22;4948595;28;104032;-74
2023/02/12 01:39:02;;;;;;;;;32.75;28.00;;;;;3.17;100.00;99703.06;4811592;28;104155;-72
2023/02/12 01:41:33;;;;;;;;;41.25;31.75;;;;;3.25;100.00;99716.63;4748031;28;102268;-73
2023/02/12 01:44:20;;;;;;;;;35.50;31.50;;;;;3.16;100.00;99707.53;4947250;28;102238;-73
2023/02/12 01:46:53;;;;;;;;;41.50;31.25;;;;;3.22;100.00;99727.56;4952217;28;109170;-72
2023/02/12 01:49:25;;;;;;;;;33.00;29.25;;;;;3.19;100.00;99723.34;4944553;28;102363;-73
2023/02/12 01:52:06;;;;;;;;;34.50;28.75;;;;;3.20;100.00;99719.69;4952660;28;102183;-74
2023/02/12 01:54:34;;;;;;;;;35.75;30.00;;;;;3.23;100.00;99734.63;4957308;28;102370;-73
2023/02/12 01:57:05;;;;;;;;;31.25;28.25;;;;;3.24;100.00;99747.88;4941774;28;105003;-73
2023/02/12 01:59:34;;;;;;;;;41.50;32.00;;;;;3.25;100.00;99748.69;4949960;28;102256;-73
2023/02/12 02:02:03;;;;;;;;;31.75;29.75;;;;;3.22;100.00;99749.81;4958484;28;102770;-73
2023/02/12 02:04:36;;;;;;;;;38.50;31.50;;;;;3.24;100.00;99758.56;4934744;28;102205;-74
2023/02/12 02:07:13;;;;;;;;;44.00;32.75;;;;;3.26;100.00;99761.94;4959491;28;103564;-73
2023/02/12 02:10:02;;;;;;;;;43.00;33.00;;;;;3.24;100.00;99761.25;4942701;28;102619;-73
2023/02/12 02:15:58;;;;;;;;;42.75;32.25;;;;;3.23;100.00;99767.53;4934763;28;102371;-73
2023/02/12 02:19:12;;;;;;;;;30.25;27.50;;;;;3.30;100.00;99768.72;4943439;28;109005;-73
2023/02/12 02:22:12;;;;;;;;;34.00;27.50;;;;;3.27;100.00;99763.66;4949465;28;102312;-72
2023/02/12 02:25:24;;;;;;;;;37.50;26.25;;;;;3.26;100.00;99767.28;4945777;28;102176;-71
2023/02/12 02:28:19;;;;;;;;;33.75;28.00;;;;;3.25;100.00;99776.28;4938092;28;102342;-72
2023/02/12 02:31:04;;;;;;;;;41.50;35.75;;;;;3.24;100.00;99771.94;4946824;28;108825;-72
2023/02/12 02:33:31;;;;;;;;;30.50;26.00;;;;;3.26;100.00;99775.31;4940421;28;102353;-72
2023/02/12 02:36:22;;;;;;;;;52.75;34.25;;;;;3.25;100.00;99781.63;4942286;28;102077;-72
2023/02/12 02:38:56;;;;;;;;;32.75;27.50;;;;;3.24;100.00;99773.75;4951021;28;102442;-72
2023/02/12 02:41:43;;;;;;;;;27.25;23.25;;;;;3.27;100.00;99794.88;4948340;28;104048;-72
2023/02/12 02:44:20;;;;;;;;;29.75;26.75;;;;;3.22;100.00;99789.91;4947044;28;102116;-73
2023/02/12 02:46:50;;;;;;;;;39.75;27.25;;;;;3.25;100.00;99800.31;4946709;28;102142;-72
2023/02/12 02:49:49;;;;;;;;;34.50;27.50;;;;;3.27;100.00;99800.22;4955255;28;102192;-71
2023/02/12 02:52:23;;;;;;;;;34.50;25.75;;;;;3.26;100.00;99788.66;4947469;28;108775;-73
2023/02/12 02:55:04;;;;;;;;;37.25;32.50;;;;;3.27;100.00;99795.72;4950388;28;102338;-72
2023/02/12 02:57:40;;;;;;;;;27.75;24.25;;;;;3.29;100.00;99808.97;4950582;28;102292;-72
2023/02/12 03:00:33;;;;;;;;;28.75;23.50;;;;;3.28;100.00;99808.13;4950409;28;104118;-73
2023/02/12 03:03:29;;;;;;;;;35.50;27.00;;;;;3.30;100.00;99816.84;4942218;28;108763;-72
2023/02/12 03:06:04;;;;;;;;;31.25;24.75;;;;;3.23;100.00;99815.66;4947884;28;103704;-72
2023/02/12 03:08:38;;;;;;;;;32.50;25.75;;;;;3.25;100.00;99824.38;4944134;28;101970;-72
2023/02/12 03:11:27;;;;;;;;;28.00;25.50;;;;;3.24;100.00;99819.19;4948703;28;102395;-72
2023/02/12 03:14:11;;;;;;;;;31.00;23.75;;;;;3.25;100.00;99834.22;4951664;28;108629;-72
2023/02/12 03:16:54;;;;;;;;;31.75;25.50;;;;;3.27;100.00;99832.28;4953961;28;102068;-74
2023/02/12 03:19:35;;;;;;;;;35.75;24.50;;;;;3.22;100.00;99843.34;4929774;28;102060;-74
2023/02/12 03:22:19;;;;;;;;;40.50;31.75;;;;;3.17;100.00;99834.84;4945587;28;102298;-72
2023/02/12 03:25:10;;;;;;;;;41.00;31.25;;;;;3.15;100.00;99842.16;4954744;28;108758;-72
2023/02/12 03:27:43;;;;;;;;;31.00;27.50;;;;;3.20;100.00;99863.16;4954019;28;102130;-72
2023/02/12 03:30:11;;;;;;;;;30.75;26.50;;;;;3.19;100.00;99870.31;4948888;28;102223;-73
2023/02/12 03:32:53;;;;;;;;;34.75;30.25;;;;;3.18;100.00;99865.94;4955506;28;102303;-72
2023/02/12 03:35:27;;;;;;;;;36.00;25.75;;;;;3.22;100.00;99870.06;4950094;28;108722;-72
2023/02/12 03:38:20;;;;;;;;;29.00;24.75;;;;;3.20;100.00;99872.00;4933673;28;103385;-72
2023/02/12 03:41:01;;;;;;;;;34.00;24.75;;;;;3.20;100.00;99885.38;4935402;28;102406;-71
2023/02/12 03:43:52;;;;;;;;;29.75;23.00;;;;;3.20;100.00;99889.88;4927808;28;102064;-72
2023/02/12 03:46:24;;;;;;;;;35.00;28.75;;;;;3.19;100.00;99890.84;4937910;28;108988;-72
2023/02/12 03:49:03;;;;;;;;;31.75;27.25;;;;;3.21;100.00;99900.44;4936129;28;102420;-73
2023/02/12 03:51:43;;;;;;;;;29.50;25.25;;;;;3.17;100.00;99907.00;4934274;28;101976;-73
2023/02/12 03:54:15;;;;;;;;;30.00;25.75;;;;;3.05;100.00;99887.47;4934907;28;102474;-73
2023/02/12 03:56:52;;;;;;;;;28.25;22.00;;;;;3.18;100.00;99919.41;4937130;28;107121;-72
2023/02/12 03:59:21;;;;;;;;;29.00;21.25;;;;;3.19;100.00;99920.25;4935822;28;102365;-72
2023/02/12 04:01:51;;;;;;;;;29.25;25.75;;;;;3.19;100.00;99920.25;4945687;28;102084;-72
2023/02/12 04:04:20;;;;;;;;;22.75;17.25;;;;;3.20;100.00;99921.97;4939212;28;102302;-72
2023/02/12 04:06:49;;;;;;;;;18.75;14.25;;;;;3.17;100.00;99927.53;4940766;28;103961;-72
2023/02/12 04:09:17;;;;;;;;;27.50;20.75;;;;;3.15;100.00;99925.00;4933734;28;102327;-73
2023/02/12 04:12:14;;;;;;;;;24.75;20.00;;;;;3.15;100.00;99943.69;4936414;28;102221;-73
2023/02/12 04:15:05;;;;;;;;;15.75;14.75;;;;;3.17;100.00;99932.88;4931315;28;102080;-73
2023/02/12 04:17:45;;;;;;;;;35.00;23.75;;;;;3.11;100.00;99939.53;4934778;28;108735;-73
2023/02/12 04:20:18;;;;;;;;;31.00;23.75;;;;;3.11;100.00;99936.88;4929491;28;102195;-73
2023/02/12 04:23:11;;;;;;;;;23.50;20.00;;;;;3.09;100.00;99936.16;4930926;28;101957;-72
2023/02/12 04:26:01;;;;;;;;;31.00;25.25;;;;;3.11;100.00;99939.53;4931384;28;102451;-72
2023/02/12 04:28:57;;;;;;;;;32.00;24.50;;;;;3.12;100.00;99952.78;4934153;28;108618;-72
2023/02/12 04:31:52;;;;;;;;;31.75;25.75;;;;;3.10;100.00;99953.91;4929238;28;102769;-72
2023/02/12 04:35:00;;;;;;;;;27.75;22.00;;;;;3.12;100.00;99954.63;4926678;28;102297;-73
2023/02/12 04:37:42;;;;;;;;;41.75;28.75;;;;;3.11;100.00;99963.59;4854620;28;102399;-73
2023/02/12 04:40:13;;;;;;;;;24.00;22.50;;;;;3.07;100.00;99965.66;4852852;28;104068;-73
2023/02/12 04:42:51;;;;;;;;;26.25;21.00;;;;;3.08;100.00;99967.38;4888372;28;102069;-73
2023/02/12 04:45:37;;;;;;;;;18.75;15.50;;;;;3.08;100.00;99962.03;4929530;28;102332;-73
2023/02/12 04:48:05;;;;;;;;;25.25;19.50;;;;;2.98;100.00;99952.16;4930474;28;102440;-73
2023/02/12 04:50:41;;;;;;;;;30.25;19.75;;;;;3.05;100.00;99978.31;4941895;28;104814;-73
2023/02/12 04:53:09;;;;;;;;;30.25;22.00;;;;;2.97;100.00;99970.00;4936675;28;102030;-73
2023/02/12 04:55:36;;;;;;;;;21.25;18.25;;;;;2.95;100.00;99966.63;4934423;28;102483;-73
2023/02/12 04:58:05;;;;;;;;;20.00;14.25;;;;;3.05;100.00;99980.13;4962228;28;102343;-74
2023/02/12 05:00:32;;;;;;;;;26.75;21.25;;;;;2.99;100.00;99991.28;4933125;28;103507;-72
2023/02/12 05:03:00;;;;;;;;;27.00;23.25;;;;;2.99;100.00;99993.94;4944609;28;102374;-72
2023/02/12 05:05:27;;;;;;;;;28.00;24.00;;;;;2.97;100.00;99994.06;4952183;28;103119;-72
2023/02/12 05:07:54;;;;;;;;;30.25;28.25;;;;;2.94;100.00;100001.47;4953438;28;101980;-72
2023/02/12 05:10:21;;;;;;;;;25.25;22.25;;;;;2.91;100.00;100007.91;4954697;28;103910;-74
2023/02/12 05:12:51;;;;;;;;;29.00;22.50;;;;;2.94;100.00;100012.16;4926667;28;102200;-71
2023/02/12 05:15:19;;;;;;;;;21.50;18.25;;;;;2.97;100.00;100015.44;4932537;28;102179;-72
2023/02/12 05:17:46;;;;;;;;;28.00;19.25;;;;;2.93;100.00;100005.97;4942186;28;102311;-72
2023/02/12 05:20:13;;;;;;;;;24.50;19.00;;;;;2.86;100.00;100015.44;4944048;28;108574;-72
2023/02/12 05:22:40;;;;;;;;;25.25;21.50;;;;;2.75;100.00;100007.38;4957733;28;101930;-71
2023/02/12 05:25:07;;;;;;;;;27.25;17.50;;;;;2.84;100.00;100024.50;4953414;28;104034;-72
2023/02/12 05:27:34;;;;;;;;;18.00;13.50;;;;;2.77;100.00;100031.28;4952767;28;102121;-72
2023/02/12 05:30:01;;;;;;;;;14.00;11.25;;;;;2.76;100.00;100041.13;4968796;28;104010;-72
2023/02/12 05:32:28;;;;;;;;;16.75;12.25;;;;;2.73;100.00;100038.69;4957906;28;102195;-71
2023/02/12 05:34:55;;;;;;;;;18.50;17.00;;;;;2.70;100.00;100042.44;4954292;28;102345;-72
2023/02/12 05:37:22;;;;;;;;;14.25;12.00;;;;;2.66;100.00;100046.31;4950035;28;102386;-71
2023/02/12 05:39:49;;;;;;;;;18.00;15.00;;;;;2.66;100.00;100054.31;4946631;28;104015;-71
2023/02/12 05:42:16;;;;;;;;;18.25;15.75;;;;;2.58;100.00;100056.72;4956693;28;102132;-72
2023/02/12 05:52:38;;;;;;;;;27.50;16.75;;;;;2.57;100.00;100079.03;4902348;23;105966;-72
2023/02/12 05:55:05;;;;;;;;;17.75;15.25;;;;;2.62;100.00;100076.88;4903544;28;103157;-72
2023/02/12 05:57:32;;;;;;;;;21.25;18.00;;;;;2.65;100.00;100098.03;4896738;28;104400;-72
2023/02/12 06:00:00;;;;;;;;;21.75;14.00;;;;;2.63;100.00;100101.78;4909138;28;102206;-72
2023/02/12 06:02:28;;;;;;;;;25.00;20.75;;;;;2.55;100.00;100109.50;4901110;28;103948;-73
2023/02/12 06:04:54;;;;;;;;;20.00;16.25;;;;;2.49;100.00;100116.13;4905431;28;102442;-71
2023/02/12 06:07:21;;;;;;;;;23.00;16.00;;;;;2.43;100.00;100118.41;4912885;28;102063;-72
2023/02/12 06:09:49;;;;;;;;;22.25;19.50;;;;;2.38;100.00;100120.56;4901712;28;102567;-72
2023/02/12 06:12:16;;;;;;;;;16.00;13.50;;;;;2.35;100.00;100116.28;4913601;28;104022;-72
2023/02/12 06:14:43;;;;;;;;;12.75;10.75;;;;;2.35;100.00;100118.09;4914735;28;102975;-73
2023/02/12 06:17:10;;;;;;;;;13.75;10.75;;;;;2.34;100.00;100135.09;4907767;28;102426;-72
2023/02/12 06:19:37;;;;;;;;;18.50;14.00;;;;;2.21;99.38;100129.78;4904525;28;101976;-73
2023/02/12 06:22:05;;;;;;;;;12.75;9.50;;;;;2.17;99.25;100133.63;4911802;28;103973;-73
2023/02/12 06:24:32;;;;;;;;;13.50;10.25;;;;;2.09;97.25;100141.34;4895197;28;102466;-72
2023/02/12 06:26:59;;;;;;;;;14.25;10.00;;;;;1.97;97.75;100137.75;4903846;28;102351;-73
2023/02/12 06:29:26;;;;;;;;;10.50;8.75;;;;;1.99;97.78;100145.63;4903975;28;102535;-73
2023/02/12 06:31:52;;;;;;;;;10.50;9.50;;;;;1.96;97.85;100156.53;4899203;28;104458;-72
2023/02/12 06:34:20;;;;;;;;;9.00;9.00;;;;;1.83;98.08;100142.34;4907917;28;102391;-73
2023/02/12 06:36:49;;;;;;;;;9.50;9.50;;;;;1.84;98.06;100152.91;4913625;28;102248;-73
2023/02/12 06:39:17;;;;;;;;;9.00;7.00;;;;;1.83;97.92;100161.00;4904482;28;102524;-73
2023/02/12 06:41:44;;;;;;;;;13.50;10.00;;;;;1.78;98.11;100159.53;4909326;28;108669;-73
2023/02/12 06:44:12;;;;;;;;;15.50;13.25;;;;;1.76;97.97;100155.25;4896804;28;103482;-72
2023/02/12 06:46:39;;;;;;;;;10.00;9.75;;;;;1.75;98.51;100154.41;4914716;28;102330;-73
2023/02/12 06:49:06;;;;;;;;;10.25;10.25;;;;;1.68;98.76;100152.28;4919863;28;102370;-73
2023/02/12 06:51:35;;;;;;;;;16.00;14.75;;;;;1.63;98.79;100160.59;4910522;28;104045;-73
2023/02/12 06:54:02;;;;;;;;;20.75;15.00;;;;;1.56;99.29;100169.13;4900032;28;102535;-73
2023/02/12 06:56:29;;;;;;;;;16.50;12.50;;;;;1.53;99.56;100172.84;4911010;28;102092;-72
2023/02/12 06:58:58;;;;;;;;;18.50;17.25;;;;;1.61;99.07;100175.84;4915351;28;102455;-73
2023/02/12 07:01:27;;;;;;;;;21.75;19.75;;;;;1.63;100.00;100175.72;4915272;28;104018;-72
2023/02/12 07:03:59;;;;;;;;;27.50;20.75;;;;;1.62;99.96;100182.88;4924674;28;102430;-72
2023/02/12 07:06:27;;;;;;;;;25.25;24.00;;;;;1.62;98.98;100190.88;4903825;28;102176;-73
2023/02/12 07:08:55;;;;;;;;;24.50;21.00;;;;;1.63;99.18;100197.91;4914563;28;102424;-73
2023/02/12 07:11:26;;;;;;;;;21.25;17.50;;;;;1.67;98.94;100195.88;4906793;28;104014;-73
2023/02/12 07:13:53;;;;;;;;;25.50;19.25;;;;;1.68;99.21;100197.59;4906313;28;102308;-72
2023/02/12 07:16:21;;;;;;;;;16.50;16.25;;;;;1.67;98.20;100195.88;4898372;28;102279;-73
2023/02/12 07:18:48;;;;;;;;;21.50;18.50;;;;;1.65;98.77;100201.34;4919100;28;106210;-72
2023/02/12 07:21:16;;;;;;;;;18.50;17.50;;;;;1.60;98.16;100203.47;4914706;28;108101;-72
2023/02/12 07:23:48;;;;;;;;;20.25;14.75;;;;;1.56;97.30;100201.97;4900039;28;103218;-72
2023/02/12 07:26:18;;;;;;;;;27.00;18.50;;;;;1.64;98.21;100207.63;4914042;28;102898;-72
2023/02/12 07:28:45;;;;;;;;;23.25;20.00;;;;;1.38;97.78;100178.38;4912101;28;102119;-72
2023/02/12 07:31:15;;;;;;;;;26.00;19.00;;;;;1.60;97.96;100218.59;4909808;28;104965;-71
2023/02/12 07:33:43;;;;;;;;;22.50;17.00;;;;;1.46;97.09;100190.22;4898803;28;102411;-72
2023/02/12 07:36:17;;;;;;;;;18.50;17.00;;;;;1.49;94.19;100211.31;4913715;28;102236;-72
2023/02/12 07:38:44;;;;;;;;;17.25;14.75;;;;;1.45;95.16;100223.16;4910607;28;102206;-72
2023/02/12 07:41:20;;;;;;;;;13.00;10.50;;;;;1.51;94.77;100227.22;4905409;28;104001;-72
2023/02/12 07:43:48;;;;;;;;;21.00;12.00;;;;;1.57;93.31;100246.34;4916440;28;102101;-71
2023/02/12 07:46:19;;;;;;;;;11.50;7.50;;;;;1.62;89.37;100236.19;4912534;28;102365;-71
2023/02/12 07:48:50;;;;;;;;;9.50;7.50;;;;;1.68;88.94;100237.59;4917023;28;102260;-71
2023/02/12 07:51:18;;;;;;;;;9.25;6.75;;;;;1.67;88.13;100241.19;4894195;28;108714;-72
2023/02/12 07:53:45;;;;;;;;;10.00;8.00;;;;;1.68;87.72;100249.09;4894956;28;102271;-71
2023/02/12 07:56:16;;;;;;;;;14.75;11.75;;;;;1.57;87.85;100246.34;4912762;28;102367;-70
2023/02/12 07:58:45;;;;;;;;;14.00;9.75;;;;;1.49;89.04;100226.47;4924539;28;102286;-71
2023/02/12 08:01:27;;;;;;;;;8.75;8.00;;;;;1.58;87.01;100250.69;4905829;28;103197;-70
2023/02/12 08:03:58;;;;;;;;;12.75;10.00;;;;;1.71;88.35;100253.41;4916369;28;102137;-71
2023/02/12 08:06:28;;;;;;;;;9.25;8.50;;;;;1.78;86.60;100268.84;4903719;28;102257;-71
2023/02/12 08:08:58;;;;;;;;;16.75;10.25;;;;;1.79;87.94;100262.56;4906188;28;102317;-71
2023/02/12 08:11:27;;;;;;;;;12.75;6.00;;;;;1.88;88.54;100263.75;4906405;28;104035;-71
2023/02/12 08:13:55;;;;;;;;;9.25;6.50;;;;;1.81;86.52;100262.44;4910117;28;102411;-71
2023/02/12 08:16:24;;;;;;;;;12.00;9.00;;;;;1.74;87.40;100270.03;4908219;28;102194;-71
2023/02/12 08:18:52;;;;;;;;;7.50;7.00;;;;;1.78;84.62;100279.53;4910276;28;103259;-72
2023/02/12 08:21:25;;;;;;;;;9.00;6.00;;;;;1.62;84.46;100281.50;4905026;28;104420;-71
2023/02/12 08:23:57;;;;;;;;;4.50;3.25;;;;;1.71;84.84;100286.22;4910596;28;102494;-70
2023/02/12 08:26:27;;;;;;;;;8.00;6.00;;;;;1.70;85.34;100286.34;4894809;28;102508;-70
2023/02/12 08:28:58;;;;;;;;;6.75;5.75;;;;;1.68;84.61;100296.25;4900194;28;102564;-70
2023/02/12 08:31:28;;;;;;;;;10.00;6.00;;;;;1.72;84.35;100290.59;4900803;28;104030;-71
2023/02/12 08:33:56;;;;;;;;;6.25;5.75;;;;;1.89;85.58;100294.78;4909803;28;104248;-71
2023/02/12 08:36:26;;;;;;;;;9.00;7.25;;;;;1.97;84.21;100302.28;4911298;28;102232;-71
2023/02/12 08:38:56;;;;;;;;;10.00;7.75;;;;;2.05;80.92;100300.78;4917924;28;102184;-71
2023/02/12 08:41:26;;;;;;;;;10.00;9.00;;;;;2.16;81.69;100298.22;4918589;28;104969;-71
2023/02/12 08:43:55;;;;;;;;;17.00;11.25;;;;;2.29;84.05;100303.56;4910759;28;102375;-71
2023/02/12 08:46:28;;;;;;;;;10.50;8.00;;;;;2.15;82.37;100309.00;4912152;28;102565;-70
2023/02/12 08:48:58;;;;;;;;;11.75;9.75;;;;;1.90;84.04;100306.28;4919754;28;102006;-71
2023/02/12 08:51:29;;;;;;;;;10.50;9.75;;;;;1.91;84.02;100305.34;4919246;28;103958;-71
2023/02/12 08:54:02;;;;;;;;;10.00;9.00;;;;;1.88;84.33;100308.22;4907600;28;102237;-71
2023/02/12 08:56:32;;;;;;;;;9.00;7.50;;;;;1.95;82.93;100312.19;4882692;28;101981;-71
2023/02/12 08:59:03;;;;;;;;;9.75;9.25;;;;;1.52;83.69;100304.44;4886015;28;101991;-71
2023/02/12 09:01:32;;;;;;;;;6.00;5.25;;;;;1.72;83.13;100317.25;4882681;28;103357;-71
2023/02/12 09:04:00;;;;;;;;;8.50;7.50;;;;;1.53;83.10;100331.94;4893264;28;102314;-72
2023/02/12 09:06:27;;;;;;;;;4.75;4.50;;;;;1.60;82.82;100323.41;4887406;28;102394;-71
2023/02/12 09:08:54;;;;;;;;;5.50;5.00;;;;;1.69;81.77;100322.81;4901051;28;102300;-71
2023/02/12 09:11:31;;;;;;;;;10.25;6.00;;;;;1.67;80.07;100330.03;4897753;28;103995;-71
2023/02/12 09:14:01;;;;;;;;;7.50;6.50;;;;;1.74;80.82;100328.69;4905435;28;102303;-71
2023/02/12 09:16:30;;;;;;;;;9.00;6.50;;;;;1.88;79.36;100335.75;4901726;28;102328;-71
2023/02/12 09:18:58;;;;;;;;;9.25;7.50;;;;;2.03;80.10;100334.69;4897136;28;102106;-70
2023/02/12 09:21:25;;;;;;;;;10.50;9.50;;;;;2.16;80.03;100335.56;4892620;28;104661;-70
2023/02/12 09:23:52;;;;;;;;;17.25;12.50;;;;;2.18;78.26;100333.66;4893651;28;104064;-71
2023/02/12 09:26:22;;;;;;;;;14.25;8.50;;;;;2.24;77.90;100343.06;4894345;28;102308;-71
2023/02/12 09:28:49;;;;;;;;;17.00;13.50;;;;;1.99;78.90;100338.53;4900177;28;102125;-70
2023/02/12 09:31:21;;;;;;;;;11.25;10.00;;;;;1.84;78.36;100331.59;4905387;28;104008;-70
2023/02/12 09:33:48;;;;;;;;;10.75;9.50;;;;;1.93;79.74;100346.13;4892392;28;102249;-72
2023/02/12 09:36:21;;;;;;;;;8.00;8.00;;;;;2.07;78.56;100340.72;4894678;28;102270;-70
2023/02/12 09:38:49;;;;;;;;;9.25;7.50;;;;;2.11;78.22;100337.72;4901204;28;105125;-70
2023/02/12 09:41:53;;;;;;;;;11.50;9.75;;;;;2.15;77.28;100349.88;4895885;28;108679;-71
2023/02/12 09:44:31;;;;;;;;;11.00;9.00;;;;;2.19;77.33;100342.53;4869323;28;102402;-71
2023/02/12 09:47:28;;;;;;;;;11.00;8.75;;;;;2.05;76.96;100342.59;4896645;28;102564;-71
2023/02/12 09:50:09;;;;;;;;;9.75;9.25;;;;;1.93;80.55;100343.44;4892728;28;101996;-70
2023/02/12 09:52:37;;;;;;;;;8.50;8.00;;;;;2.03;79.69;100349.84;4887935;28;104014;-70
2023/02/12 09:55:04;;;;;;;;;9.75;6.50;;;;;2.07;78.32;100362.03;4909276;28;102251;-71
2023/02/12 09:57:36;;;;;;;;;11.50;9.50;;;;;2.03;79.10;100365.84;4910794;28;102182;-71
2023/02/12 10:00:08;;;;;;;;;12.50;7.50;;;;;2.15;76.19;100370.38;4914948;28;102565;-70
2023/02/12 10:02:36;;;;;;;;;11.75;11.75;;;;;2.14;78.01;100374.00;4902107;28;103986;-70
2023/02/12 10:05:13;;;;;;;;;15.25;13.25;;;;;2.06;76.50;100371.00;4909828;28;102620;-70
2023/02/12 10:08:17;;;;;;;;;7.50;7.25;;;;;2.07;75.72;100362.88;4897891;28;102237;-70
2023/02/12 10:11:28;;;;;;;;;18.00;13.00;;;;;2.17;75.22;100369.31;4900246;28;102002;-70
2023/02/12 10:14:14;;;;;;;;;15.75;10.75;;;;;2.34;75.79;100370.84;4894690;28;108464;-70
2023/02/12 10:17:05;;;;;;;;;11.25;10.50;;;;;2.45;75.56;100378.94;4919740;28;102380;-69
2023/02/12 10:19:47;;;;;;;;;14.75;9.50;;;;;2.55;75.15;100374.69;4908144;28;102903;-70
2023/02/12 10:22:54;;;;;;;;;9.00;9.00;;;;;2.81;74.15;100380.00;4908179;28;102455;-71
2023/02/12 10:25:40;;;;;;;;;14.25;12.25;;;;;2.77;74.01;100378.50;4906122;28;108617;-70
2023/02/12 10:28:12;;;;;;;;;13.75;9.75;;;;;2.38;75.12;100383.00;4892170;28;102486;-70
2023/02/12 10:30:43;;;;;;;;;14.00;13.00;;;;;2.31;75.96;100381.69;4914715;28;102120;-69
2023/02/12 10:33:18;;;;;;;;;16.75;14.00;;;;;2.33;75.69;100377.13;4904944;28;102067;-71
2023/02/12 10:36:02;;;;;;;;;13.75;11.00;;;;;2.05;75.57;100345.28;4903618;28;108252;-70
2023/02/12 10:38:37;;;;;;;;;11.00;8.25;;;;;2.58;75.49;100385.13;4906779;28;102734;-70
2023/02/12 10:41:04;;;;;;;;;14.75;13.00;;;;;2.78;74.90;100383.75;4898729;28;102154;-70
2023/02/12 10:43:31;;;;;;;;;13.25;12.50;;;;;2.83;75.25;100386.94;4914492;28;102159;-70
2023/02/12 10:45:58;;;;;;;;;15.00;12.25;;;;;2.87;72.56;100380.44;4905825;28;104220;-70
2023/02/12 10:48:39;;;;;;;;;15.00;13.00;;;;;2.89;73.56;100382.97;4926703;28;101993;-70
2023/02/12 10:51:06;;;;;;;;;22.50;17.50;;;;;2.90;74.19;100384.69;4920356;28;102247;-71
2023/02/12 10:53:53;;;;;;;;;24.00;20.50;;;;;2.83;75.82;100391.44;4919569;28;102087;-70
2023/02/12 10:56:25;;;;;;;;;23.25;18.00;;;;;2.78;75.38;100390.91;4905142;28;108398;-71
2023/02/12 10:58:54;;;;;;;;;19.75;16.00;;;;;2.85;75.64;100381.47;4906977;28;102321;-71
2023/02/12 11:01:26;;;;;;;;;21.50;15.50;;;;;2.89;74.62;100382.97;4914340;28;102108;-71
2023/02/12 11:03:55;;;;;;;;;15.75;11.75;;;;;2.93;73.59;100374.63;4908521;28;102644;-71
2023/02/12 11:06:26;;;;;;;;;17.75;15.75;;;;;3.06;74.55;100374.63;4903713;28;103937;-71
2023/02/12 11:08:54;;;;;;;;;15.00;13.25;;;;;3.23;74.19;100382.28;4902329;28;102257;-70
2023/02/12 11:11:29;;;;;;;;;16.75;14.50;;;;;3.40;75.18;100373.88;4917074;28;102150;-71
2023/02/12 11:14:19;;;;;;;;;21.25;18.00;;;;;3.28;74.00;100385.47;4913810;28;102728;-70
2023/02/12 11:16:55;;;;;;;;;24.75;20.50;;;;;3.34;73.31;100385.00;4917326;28;108711;-71
2023/02/12 11:19:30;;;;;;;;;15.25;14.75;;;;;3.14;71.36;100372.25;4916599;28;102154;-70
2023/02/12 11:22:09;;;;;;;;;11.00;11.00;;;;;3.39;72.82;100377.50;4903384;28;102030;-70
2023/02/12 11:24:37;;;;;;;;;15.50;14.00;;;;;3.28;71.20;100371.25;4915086;28;102204;-71
2023/02/12 11:27:27;;;;;;;;;14.50;13.25;;;;;3.18;71.17;100352.34;4912602;28;104491;-71
2023/02/12 11:30:19;;;;;;;;;7.75;4.00;;;;;3.32;68.74;100375.41;4909570;28;101996;-70
2023/02/12 11:32:48;;;;;;;;;16.25;15.00;;;;;3.32;71.61;100373.59;4902466;28;102382;-70
2023/02/12 11:35:23;;;;;;;;;20.00;17.00;;;;;3.14;70.55;100366.91;4898930;28;102380;-70
2023/02/12 11:37:54;;;;;;;;;19.50;13.75;;;;;3.24;69.83;100373.31;4899854;28;108691;-70
2023/02/12 11:40:28;;;;;;;;;22.75;19.00;;;;;3.17;69.89;100373.84;4882030;28;103561;-70
2023/02/12 11:42:58;;;;;;;;;12.00;12.00;;;;;3.33;72.37;100383.28;4921406;28;102225;-69
2023/02/12 11:45:40;;;;;;;;;14.25;14.00;;;;;3.30;69.66;100375.50;4912159;28;102140;-70
2023/02/12 11:48:36;;;;;;;;;16.50;16.00;;;;;3.31;67.92;100382.56;4907395;28;104015;-70
2023/02/12 11:51:07;;;;;;;;;15.75;13.00;;;;;3.40;69.23;100376.56;4892622;28;102078;-70